Terminal Aerodrome Forecast
Issued by NWS

Home | Current Version | Previous Version | Graphics & Text | Print | Product List | Glossary On
Versions: 1 2 3 4 5 6 7 8 9 10 11 12 13 14 15 16
000
FTUS43 KICT 040858 AAA
TAFRSL
TAF AMD
KRSL 040858Z 0409/0506 25004KT P6SM FEW040 BKN100
      TEMPO 0409/0412 1SM BR OVC003
     FM041200 29007KT P6SM FEW015
     FM050000 21008KT P6SM SKC=

USA.gov is the U.S. government's official web portal to all federal, state and local government web resources and services.